Imlay City, Michigan
Current Conditions -  °F | °C
As of 8:33 PM on Tuesday 25 Nov 2014 (Local Time) from KD95 Reporting Station
Overcast Overcast  
Wind Chill: 25°   Ceiling: 2400
Heat Index: 31°   Visibility: 10mi
Dew Point: 23°   Wind: 6mph
Humidity: 72%   Direction: 270°W
Pressure: 30.14"   Gusts: NA
Location:  43.02°N, 83.08°W
Report Text: KD95 260133Z AUTO 27005KT 10SM OVC024 M01/M05 A3014 RMK AO2 T10071051
Loading
Personal Weather Stations






























Interactive Weather Map New forecast layout! Learn more

10-Day Weather Forecast

Advertisements
Track Severe Weather on mobile